Pagrindinis puslapis
METAR-TAF:

METAR-TAF

Oro uostai :

Turaif, Saudo Arabija

platuma: 31-41N, ilguma: 038-44E, Aukštis: 813 m

Dabartinis oras

Ataskaita buvo paskelbta 45 minutes, ne 23:00 UTC
Vėjas 10 kt iš Vakarų
Temperatūra 19°C
Drėgmė 78%
Slėgis 1011 hPa
Matomumas 10 km arba daugiau
nėra debesų žemiau 1500 m ir nėra kamuolinių lietaus debesų

METAR: OETR 232300Z 27010KT CAVOK 19/15 Q1011 NOSIG

Laikas: 02:45 (23:45 UTC)

Prognozė

Ataskaita buvo paskelbta 45 minutes, ne 23:00 UTC
Prognozė galioja nuo 24 metu 00 UTC su 25 metu 06 UTC
Vėjas 3 kt nuo kintamojo kryptimis
Matomumas 10 km arba daugiau
nėra debesų žemiau 1500 m ir nėra kamuolinių lietaus debesų
Tapsmas
nuo 24 metu 06 UTC su 24 metu 08 UTC
Vėjas 12 kt iš Vakarų
Tapsmas
nuo 24 metu 20 UTC su 24 metu 22 UTC
Vėjas 6 kt iš Šiaurės

TAF: OETR 232300Z 2400/2506 VRB03KT CAVOK BECMG 2406/2408 28012KT BECMG 2420/2422 01006KT

Orai ataskaitas ir orų prognozės (METAR, TAF).

turimą stotys yra geltonos ir raudonos taškus žemėlapyje.

Perkelti pele per norėdami pamatyti stoties vardą.

Tada spustelėkite, norėdami matyti oro stebėjimo ir prognozės.

Norėdami pakeisti žemėlapį: spustelėkite ant žalios mygtukų su juodo kryžiaus žemyn,; žalią mygtuką su brūkšneliu, jei norite nutolinti; arba žalių rodyklių gretimoms žemėlapius.


METAR-TAF: